Time;durP1;ratioP1;P1;durP2;ratioP2;P2;SDS_P1;SDS_P2;PMS_P1;PMS_P2;Temp;Humidity;BMP_temperature;BMP_pressure;BME280_temperature;BME280_humidity;BME280_pressure;Samples;Min_cycle;Max_cycle;Signal;HPM_P1;HPM_P2
2022/10/13 00:02:17;;;;;;;15.73;11.32;;;;;;;12.53;100.00;101841.03;5245507;28;20428;-72
2022/10/13 00:04:48;;;;;;;18.27;11.95;;;;;;;12.51;100.00;101836.88;5246713;28;20386;-72
2022/10/13 00:07:19;;;;;;;19.02;11.43;;;;;;;12.51;100.00;101839.50;5241306;28;20492;-72
2022/10/13 00:09:50;;;;;;;21.23;12.45;;;;;;;12.52;100.00;101834.13;5243494;28;20104;-73
2022/10/13 00:12:22;;;;;;;18.90;12.60;;;;;;;12.53;100.00;101835.78;5244095;28;20025;-72
2022/10/13 00:14:53;;;;;;;16.15;11.38;;;;;;;12.52;100.00;101828.84;5249632;28;20029;-73
2022/10/13 00:17:24;;;;;;;15.60;11.85;;;;;;;12.53;100.00;101827.06;5246144;28;20417;-73
2022/10/13 00:19:55;;;;;;;13.73;11.57;;;;;;;12.51;100.00;101819.31;5244304;28;20363;-73
2022/10/13 00:22:27;;;;;;;15.30;11.25;;;;;;;12.52;100.00;101820.13;5246337;28;20026;-72
2022/10/13 00:24:58;;;;;;;18.48;11.05;;;;;;;12.50;100.00;101815.00;5240518;28;20442;-72
2022/10/13 00:27:30;;;;;;;18.35;12.02;;;;;;;12.45;100.00;101811.88;5247325;28;20033;-72
2022/10/13 00:30:01;;;;;;;15.10;11.15;;;;;;;12.47;100.00;101822.31;5243723;28;20033;-72
2022/10/13 00:32:33;;;;;;;16.38;10.95;;;;;;;12.46;100.00;101810.91;5241485;28;20132;-73
2022/10/13 00:35:04;;;;;;;17.98;11.98;;;;;;;12.48;100.00;101816.09;5248296;28;20021;-73
2022/10/13 00:37:36;;;;;;;15.18;10.98;;;;;;;12.47;100.00;101812.63;5247367;28;20052;-73
2022/10/13 00:40:07;;;;;;;18.17;11.38;;;;;;;12.47;100.00;101820.50;5245100;28;20029;-73
2022/10/13 00:42:40;;;;;;;15.63;10.68;;;;;;;12.49;100.00;101810.69;5243976;28;20021;-72
2022/10/13 00:45:22;;;;;;;15.85;10.63;;;;;;;12.56;100.00;101816.31;5249398;28;20044;-73
2022/10/13 00:47:57;;;;;;;18.88;11.70;;;;;;;12.54;100.00;101810.31;5248314;28;20569;-73
2022/10/13 00:50:34;;;;;;;17.05;11.30;;;;;;;12.55;100.00;101809.41;5244220;28;20083;-73
2022/10/13 00:53:06;;;;;;;16.02;11.02;;;;;;;12.57;100.00;101810.09;5244018;28;20029;-73
2022/10/13 00:55:42;;;;;;;16.47;11.23;;;;;;;12.60;100.00;101813.31;5249278;28;20049;-73
2022/10/13 00:58:18;;;;;;;20.00;11.90;;;;;;;12.54;100.00;101805.94;5244564;28;20029;-72
2022/10/13 01:00:51;;;;;;;18.40;11.27;;;;;;;12.52;100.00;101807.84;5245430;28;20060;-72
2022/10/13 01:03:22;;;;;;;;;;;;;;;13.08;100.00;101812.22;5241366;28;20106;-73
2022/10/13 01:05:57;;;;;;;19.38;10.68;;;;;;;12.62;100.00;101811.44;5245918;28;19917;-72
2022/10/13 01:08:29;;;;;;;21.25;11.38;;;;;;;12.52;100.00;101805.19;5244266;28;21027;-72
2022/10/13 01:11:27;;;;;;;21.75;11.55;;;;;;;12.75;100.00;101805.19;5243428;28;20026;-72
2022/10/13 01:14:01;;;;;;;17.42;11.27;;;;;;;12.56;100.00;101808.44;5245934;28;20394;-72
2022/10/13 01:17:03;;;;;;;17.20;10.32;;;;;;;12.66;100.00;101812.84;5238988;28;20034;-72
2022/10/13 01:19:55;;;;;;;19.13;12.07;;;;;;;12.68;100.00;101806.63;5240182;28;20021;-73
2022/10/13 01:22:44;;;;;;;19.58;11.65;;;;;;;12.62;100.00;101805.34;5245814;28;20533;-72
2022/10/13 01:25:46;;;;;;;18.17;10.93;;;;;;;12.75;100.00;101811.28;5242097;28;20030;-72
2022/10/13 01:28:39;;;;;;;18.00;11.15;;;;;;;12.77;100.00;101793.63;5240684;28;20032;-72
2022/10/13 01:31:30;;;;;;;18.02;11.40;;;;;;;12.64;100.00;101811.28;5241853;28;20035;-73
2022/10/13 01:34:22;;;;;;;20.30;11.23;;;;;;;12.72;100.00;101803.63;5246594;28;20437;-72
2022/10/13 01:37:17;;;;;;;17.63;11.88;;;;;;;12.71;100.00;101798.50;5261275;28;20025;-73
2022/10/13 01:40:01;;;;;;;17.05;11.68;;;;;;;12.63;100.00;101801.75;5239676;28;20565;-72
2022/10/13 01:42:45;;;;;;;19.33;12.00;;;;;;;12.69;100.00;101800.41;5244803;28;20025;-72
2022/10/13 01:45:21;;;;;;;19.60;11.85;;;;;;;12.61;100.00;101801.00;5259905;28;20029;-73
2022/10/13 01:47:52;;;;;;;15.45;11.48;;;;;;;12.54;100.00;101794.56;5240210;28;20018;-72
2022/10/13 01:50:25;;;;;;;19.08;11.48;;;;;;;12.58;100.00;101793.38;5240892;28;20034;-72
2022/10/13 01:53:01;;;;;;;18.97;12.53;;;;;;;12.68;100.00;101794.31;5243621;28;20025;-72
2022/10/13 01:55:32;;;;;;;18.48;11.65;;;;;;;12.62;100.00;101789.56;5245289;28;20032;-72
2022/10/13 01:58:03;;;;;;;22.63;12.63;;;;;;;12.63;100.00;101780.72;5253471;28;20502;-72
2022/10/13 02:00:42;;;;;;;22.55;11.85;;;;;;;12.74;100.00;101780.69;5240479;28;20075;-72
2022/10/13 02:03:25;;;;;;;18.67;11.38;;;;;;;12.70;100.00;101776.66;5246881;28;20033;-72
2022/10/13 02:06:19;;;;;;;18.33;11.90;;;;;;;12.82;100.00;101778.28;5263316;28;20029;-71
2022/10/13 02:08:56;;;;;;;20.60;11.23;;;;;;;12.73;100.00;101771.16;5244927;28;20319;-72
2022/10/13 02:11:28;;;;;;;18.42;10.70;;;;;;;12.65;100.00;101770.91;5242941;28;20033;-72
2022/10/13 02:14:14;;;;;;;17.83;11.65;;;;;;;12.81;100.00;101771.38;5247133;28;20056;-72
2022/10/13 02:16:48;;;;;;;22.58;12.88;;;;;;;12.69;100.00;101771.50;5244970;28;20560;-72
2022/10/13 02:19:20;;;;;;;16.38;11.52;;;;;;;12.68;100.00;101760.13;5247239;28;20120;-72
2022/10/13 02:21:52;;;;;;;21.55;10.75;;;;;;;12.69;100.00;101761.84;5242488;28;20115;-72
2022/10/13 02:24:23;;;;;;;17.25;11.50;;;;;;;12.73;100.00;101752.75;5250042;28;20597;-72
2022/10/13 02:26:55;;;;;;;18.38;11.70;;;;;;;12.71;100.00;101753.81;5244549;28;20096;-71
2022/10/13 02:29:26;;;;;;;18.48;11.30;;;;;;;12.72;100.00;101751.06;5250117;28;20504;-71
2022/10/13 02:31:57;;;;;;;21.20;11.10;;;;;;;12.74;100.00;101746.53;5248269;28;20017;-71
2022/10/13 02:34:29;;;;;;;13.48;9.98;;;;;;;12.73;100.00;101744.84;5249320;28;21014;-72
2022/10/13 02:37:00;;;;;;;13.73;10.38;;;;;;;12.77;100.00;101750.72;5253684;28;20398;-72
2022/10/13 02:39:32;;;;;;;17.90;10.73;;;;;;;12.77;100.00;101751.53;5252780;28;20024;-72
2022/10/13 02:42:04;;;;;;;19.15;10.98;;;;;;;12.75;100.00;101747.34;5246743;28;20071;-71
2022/10/13 02:44:36;;;;;;;13.75;10.38;;;;;;;12.78;100.00;101753.19;5246833;28;20044;-71
2022/10/13 02:47:07;;;;;;;15.60;10.65;;;;;;;12.80;100.00;101751.28;5243974;28;20033;-71
2022/10/13 02:49:38;;;;;;;17.67;10.63;;;;;;;12.81;100.00;101747.72;5250751;28;20092;-72
2022/10/13 02:52:10;;;;;;;15.38;9.80;;;;;;;12.82;100.00;101744.09;5242768;28;20025;-72
2022/10/13 02:54:41;;;;;;;14.95;9.93;;;;;;;12.83;100.00;101735.25;5248870;28;20079;-72
2022/10/13 02:57:12;;;;;;;18.27;10.25;;;;;;;12.84;100.00;101739.56;5249482;28;20044;-72
2022/10/13 02:59:44;;;;;;;16.00;10.32;;;;;;;12.85;100.00;101737.78;5246644;28;20091;-72
2022/10/13 03:02:16;;;;;;;15.25;10.25;;;;;;;12.86;100.00;101744.69;5238769;28;20025;-72
2022/10/13 03:04:48;;;;;;;17.08;10.65;;;;;;;12.85;100.00;101743.88;5243436;28;20474;-72
2022/10/13 03:07:19;;;;;;;13.30;10.10;;;;;;;12.90;100.00;101743.50;5246197;28;20033;-72
2022/10/13 03:09:51;;;;;;;14.68;9.63;;;;;;;12.89;100.00;101731.31;5245867;28;20032;-72
2022/10/13 03:12:22;;;;;;;12.55;9.30;;;;;;;12.89;100.00;101731.31;5245173;28;20048;-72
2022/10/13 03:14:53;;;;;;;15.95;9.93;;;;;;;12.94;100.00;101725.69;5248779;28;20025;-72
2022/10/13 03:17:25;;;;;;;16.45;10.25;;;;;;;12.96;100.00;101723.78;5249180;28;20046;-72
2022/10/13 03:19:57;;;;;;;14.95;10.25;;;;;;;12.95;100.00;101727.34;5251854;28;20021;-72
2022/10/13 03:22:31;;;;;;;16.27;10.13;;;;;;;12.95;100.00;101716.81;5245552;28;20029;-72
2022/10/13 03:25:02;;;;;;;13.43;9.60;;;;;;;12.86;100.00;101721.88;5251330;28;20033;-72
2022/10/13 03:27:34;;;;;;;13.07;9.82;;;;;;;12.88;100.00;101722.59;5242748;28;20056;-72
2022/10/13 03:30:07;;;;;;;11.68;9.25;;;;;;;12.87;100.00;101715.63;5251732;28;20029;-72
2022/10/13 03:32:39;;;;;;;16.00;10.30;;;;;;;12.97;100.00;101736.78;5243499;28;20025;-72
2022/10/13 03:35:10;;;;;;;13.73;9.50;;;;;;;12.93;100.00;101716.94;5245366;28;20047;-72
2022/10/13 03:37:42;;;;;;;13.27;9.20;;;;;;;12.93;100.00;101716.94;5242160;28;20033;-72
2022/10/13 03:40:13;;;;;;;12.63;9.65;;;;;;;12.93;100.00;101719.59;5254641;28;20077;-72
2022/10/13 03:42:44;;;;;;;15.80;9.45;;;;;;;12.94;100.00;101720.41;5244264;28;20032;-72
2022/10/13 03:45:16;;;;;;;18.38;10.15;;;;;;;12.95;100.00;101717.66;5244454;28;20498;-72
2022/10/13 03:47:47;;;;;;;12.50;8.98;;;;;;;12.97;100.00;101707.84;5243421;28;20471;-72
2022/10/13 03:50:18;;;;;;;12.82;10.00;;;;;;;12.95;100.00;101709.75;5249160;28;20025;-71
2022/10/13 03:52:50;;;;;;;11.93;9.05;;;;;;;12.97;100.00;101707.03;5246610;28;20025;-72
2022/10/13 03:55:21;;;;;;;12.18;9.20;;;;;;;12.96;100.00;101700.94;5239455;28;20052;-72
2022/10/13 03:57:52;;;;;;;14.50;9.75;;;;;;;12.98;100.00;101699.00;5249165;28;20441;-72
2022/10/13 04:00:24;;;;;;;18.80;10.02;;;;;;;12.96;100.00;101687.78;5249255;28;20596;-72
2022/10/13 04:02:55;;;;;;;14.07;9.98;;;;;;;12.99;100.00;101684.88;5243973;28;20639;-72
2022/10/13 04:05:26;;;;;;;15.30;9.70;;;;;;;13.01;100.00;101682.13;5246246;28;20033;-72
2022/10/13 04:07:57;;;;;;;15.38;9.38;;;;;;;13.04;100.00;101682.72;5248570;28;20028;-72
2022/10/13 04:10:29;;;;;;;16.13;10.02;;;;;;;13.00;100.00;101676.03;5249523;28;20033;-72
2022/10/13 04:13:00;;;;;;;16.08;10.27;;;;;;;13.02;100.00;101686.44;5241609;28;20029;-72
2022/10/13 04:15:36;;;;;;;18.08;10.23;;;;;;;13.08;100.00;101681.50;5250393;28;20210;-72
2022/10/13 04:18:09;;;;;;;14.43;9.50;;;;;;;13.01;100.00;101684.75;5251895;28;20028;-71
2022/10/13 04:20:40;;;;;;;17.15;9.75;;;;;;;12.97;100.00;101672.81;5242050;28;20411;-72
2022/10/13 04:23:12;;;;;;;16.85;10.35;;;;;;;13.04;100.00;101679.25;5235732;28;20045;-71
2022/10/13 04:25:43;;;;;;;18.65;10.40;;;;;;;13.03;100.00;101673.16;5250270;28;20067;-72
2022/10/13 04:28:14;;;;;;;16.40;9.48;;;;;;;13.04;100.00;101669.56;5252362;28;20072;-72
2022/10/13 04:30:45;;;;;;;13.32;9.57;;;;;;;12.98;100.00;101653.44;5249859;28;20482;-72
2022/10/13 04:33:17;;;;;;;16.70;9.93;;;;;;;13.01;100.00;101658.47;5246587;28;20394;-72
2022/10/13 04:35:48;;;;;;;13.75;10.15;;;;;;;13.00;100.00;101667.31;5243643;28;20482;-72
2022/10/13 04:38:19;;;;;;;17.58;10.70;;;;;;;13.00;100.00;101667.31;5249019;28;20486;-72
2022/10/13 04:40:50;;;;;;;14.95;9.90;;;;;;;12.99;100.00;101673.53;5251163;28;20055;-71
2022/10/13 04:43:22;;;;;;;14.73;10.43;;;;;;;13.00;100.00;101668.16;5249429;28;20045;-72
2022/10/13 04:45:59;;;;;;;15.18;10.55;;;;;;;13.07;100.00;101656.16;5255926;28;20466;-72
2022/10/13 04:48:31;;;;;;;15.40;9.90;;;;;;;12.99;100.00;101653.31;5254180;28;20079;-72
2022/10/13 04:51:05;;;;;;;15.25;10.02;;;;;;;13.03;100.00;101661.78;5250762;28;20040;-71
2022/10/13 04:53:36;;;;;;;15.80;9.80;;;;;;;12.97;100.00;101667.56;5250498;28;20029;-71
2022/10/13 04:56:10;;;;;;;17.92;9.90;;;;;;;13.02;100.00;101668.00;5242689;28;20128;-72
2022/10/13 04:58:43;;;;;;;17.55;11.23;;;;;;;13.01;100.00;101668.97;5242963;28;20021;-72
2022/10/13 05:01:18;;;;;;;15.90;9.95;;;;;;;13.03;100.00;101664.41;5241611;28;20025;-72
2022/10/13 05:03:55;;;;;;;17.77;11.05;;;;;;;13.06;100.00;101656.28;5246685;28;20064;-72
2022/10/13 05:06:33;;;;;;;14.52;9.93;;;;;;;13.09;100.00;101659.50;5251224;28;20065;-71
2022/10/13 05:09:04;;;;;;;17.38;10.90;;;;;;;12.99;100.00;101660.38;5249834;28;20105;-72
2022/10/13 05:11:35;;;;;;;15.38;9.90;;;;;;;12.97;100.00;101664.94;5248041;28;20135;-72
2022/10/13 05:14:07;;;;;;;17.73;11.18;;;;;;;12.97;100.00;101671.03;5242513;28;20364;-72
2022/10/13 05:16:38;;;;;;;19.30;11.48;;;;;;;12.98;100.00;101654.28;5248152;28;20413;-73
2022/10/13 05:19:09;;;;;;;15.27;9.70;;;;;;;12.99;100.00;101657.75;5251864;28;20107;-72
2022/10/13 05:21:41;;;;;;;16.55;9.95;;;;;;;12.97;100.00;101657.88;5245747;28;20024;-72
2022/10/13 05:24:14;;;;;;;15.32;10.75;;;;;;;13.00;100.00;101662.88;5240510;28;20048;-73
2022/10/13 05:26:45;;;;;;;16.90;11.40;;;;;;;13.03;100.00;101662.66;5238038;28;20049;-72
2022/10/13 05:29:17;;;;;;;14.88;10.02;;;;;;;13.01;100.00;101666.34;5249140;28;20099;-72
2022/10/13 05:31:48;;;;;;;17.80;10.20;;;;;;;12.97;100.00;101667.56;5248890;28;20025;-73
2022/10/13 05:34:20;;;;;;;13.60;10.15;;;;;;;12.99;100.00;101673.53;5256574;28;20076;-72
2022/10/13 05:36:51;;;;;;;15.13;10.02;;;;;;;12.99;100.00;101671.72;5256867;28;20044;-73
2022/10/13 05:39:22;;;;;;;14.43;10.93;;;;;;;12.97;100.00;101672.81;5255776;28;20094;-72
2022/10/13 05:41:54;;;;;;;15.98;10.23;;;;;;;12.96;100.00;101665.91;5251048;28;20025;-72
2022/10/13 05:44:25;;;;;;;16.08;10.55;;;;;;;12.97;100.00;101670.19;5256735;28;20481;-72
2022/10/13 05:46:56;;;;;;;15.60;10.13;;;;;;;12.94;100.00;101658.13;5255268;28;20087;-72
2022/10/13 05:49:28;;;;;;;19.17;10.43;;;;;;;12.95;100.00;101658.94;5245184;28;20067;-71
2022/10/13 05:52:02;;;;;;;18.30;10.75;;;;;;;12.99;100.00;101655.94;5244087;28;20086;-72
2022/10/13 05:54:38;;;;;;;15.43;9.95;;;;;;;12.97;100.00;101667.56;5254245;28;20052;-72
2022/10/13 05:57:16;;;;;;;16.23;10.60;;;;;;;12.99;100.00;101666.47;5250537;28;20063;-72
2022/10/13 06:00:06;;;;;;;17.38;11.40;;;;;;;13.07;100.00;101671.94;5239839;28;20394;-72
2022/10/13 06:02:53;;;;;;;15.85;10.40;;;;;;;13.08;100.00;101670.16;5245618;28;20041;-72
2022/10/13 06:05:26;;;;;;;17.02;10.93;;;;;;;12.97;100.00;101664.94;5236577;28;20033;-72
2022/10/13 06:07:58;;;;;;;23.00;11.13;;;;;;;12.96;100.00;101660.66;5243508;28;20021;-72
2022/10/13 06:10:30;;;;;;;16.35;11.13;;;;;;;12.97;100.00;101651.78;5243376;28;20108;-73
2022/10/13 06:13:01;;;;;;;18.23;10.43;;;;;;;12.99;100.00;101645.41;5245620;28;20108;-71
2022/10/13 06:15:33;;;;;;;19.52;10.90;;;;;;;13.00;100.00;101644.47;5250602;28;20025;-72
2022/10/13 06:18:08;;;;;;;16.40;10.68;;;;;;;13.09;100.00;101648.13;5244752;28;20083;-72
2022/10/13 06:20:39;;;;;;;15.07;10.57;;;;;;;13.04;100.00;101639.81;5243900;28;20032;-72
2022/10/13 06:23:10;;;;;;;16.90;10.77;;;;;;;13.06;100.00;101632.59;5232670;28;20021;-72
2022/10/13 06:25:49;;;;;;;18.25;11.07;;;;;;;13.12;100.00;101642.63;5241961;28;20037;-72
2022/10/13 06:28:20;;;;;;;15.93;10.35;;;;;;;13.05;100.00;101644.91;5240442;28;20186;-72
2022/10/13 06:30:55;;;;;;;17.80;10.90;;;;;;;13.04;100.00;101635.38;5243244;28;20115;-72
2022/10/13 06:33:27;;;;;;;18.70;11.77;;;;;;;13.06;100.00;101641.31;5249528;28;20045;-72
2022/10/13 06:36:03;;;;;;;16.95;10.48;;;;;;;13.16;100.00;101651.94;5247557;28;20060;-72
2022/10/13 06:38:34;;;;;;;23.17;10.95;;;;;;;13.09;100.00;101638.44;5239909;28;20024;-72
2022/10/13 06:41:06;;;;;;;18.08;11.48;;;;;;;13.11;100.00;101633.06;5249545;28;20033;-72
2022/10/13 06:43:37;;;;;;;14.27;10.98;;;;;;;13.13;100.00;101639.84;5240375;28;20451;-72
2022/10/13 06:46:10;;;;;;;16.23;11.80;;;;;;;13.17;100.00;101653.59;5245688;28;20504;-72
2022/10/13 06:48:42;;;;;;;22.30;11.63;;;;;;;13.19;100.00;101645.59;5233889;28;20033;-72
2022/10/13 06:51:13;;;;;;;17.52;11.45;;;;;;;13.20;100.00;101636.72;5240760;28;20035;-72
2022/10/13 06:53:44;;;;;;;18.63;11.57;;;;;;;13.21;100.00;101633.13;5245035;28;20437;-72
2022/10/13 06:56:15;;;;;;;21.33;11.20;;;;;;;13.22;100.00;101630.38;5245757;28;20032;-73
2022/10/13 06:58:47;;;;;;;20.77;11.80;;;;;;;13.25;100.00;101629.31;5243317;28;20031;-72
2022/10/13 07:01:18;;;;;;;25.48;11.52;;;;;;;13.25;100.00;101643.28;5240420;28;20075;-72
2022/10/13 07:03:50;;;;;;;19.92;11.45;;;;;;;13.29;100.00;101628.91;5246244;28;20045;-72
2022/10/13 07:06:22;;;;;;;17.02;11.50;;;;;;;13.24;100.00;101614.50;5245046;28;20033;-72
2022/10/13 07:08:53;;;;;;;19.38;11.55;;;;;;;13.32;100.00;101627.84;5242832;28;20445;-72
2022/10/13 07:11:24;;;;;;;17.45;10.90;;;;;;;13.31;100.00;101632.28;5242254;28;20024;-73
2022/10/13 07:13:56;;;;;;;15.98;11.50;;;;;;;13.33;100.00;101637.38;5247068;28;20459;-73
2022/10/13 07:16:27;;;;;;;20.02;11.48;;;;;;;13.34;100.00;101636.44;5244639;28;20033;-71
2022/10/13 07:18:58;;;;;;;18.52;12.57;;;;;;;13.38;100.00;101640.50;5241451;28;20033;-72
2022/10/13 07:21:30;;;;;;;27.67;13.32;;;;;;;13.37;100.00;101637.03;5243113;28;20342;-72
2022/10/13 07:24:02;;;;;;;15.77;11.05;;;;;;;13.38;100.00;101635.22;5242106;28;20036;-73
2022/10/13 07:26:35;;;;;;;19.80;11.55;;;;;;;13.44;100.00;101634.69;5244265;28;20025;-72
2022/10/13 07:29:07;;;;;;;17.50;11.70;;;;;;;13.45;100.00;101633.75;5237544;28;20172;-73
2022/10/13 07:31:38;;;;;;;17.27;11.73;;;;;;;13.45;100.00;101640.78;5233642;28;20017;-72
2022/10/13 07:34:10;;;;;;;19.00;11.60;;;;;;;13.48;100.00;101635.25;5238978;28;20037;-72
2022/10/13 07:36:41;;;;;;;19.55;12.13;;;;;;;13.53;100.00;101643.63;5242627;28;20444;-73
2022/10/13 07:39:12;;;;;;;16.85;11.38;;;;;;;13.55;100.00;101641.69;5242525;28;20033;-72
2022/10/13 07:41:44;;;;;;;16.30;12.10;;;;;;;13.57;100.00;101634.50;5243417;28;20050;-71
2022/10/13 07:44:18;;;;;;;16.83;12.07;;;;;;;13.58;100.00;101625.63;5232307;28;20510;-73
2022/10/13 07:46:49;;;;;;;19.92;12.02;;;;;;;13.62;100.00;101635.78;5253365;28;20029;-72
2022/10/13 07:49:21;;;;;;;18.85;10.82;;;;;;;13.66;100.00;101628.44;5240394;28;20028;-73
2022/10/13 07:51:52;;;;;;;15.63;12.07;;;;;;;13.65;100.00;101623.31;5241829;28;20071;-73
2022/10/13 07:54:24;;;;;;;20.70;12.65;;;;;;;13.76;100.00;101628.50;5241584;28;20029;-73
2022/10/13 07:56:55;;;;;;;20.70;12.88;;;;;;;13.86;100.00;101639.91;5239784;28;20504;-73
2022/10/13 07:59:26;;;;;;;17.92;12.52;;;;;;;13.92;100.00;101638.56;5240732;28;20061;-73
2022/10/13 08:01:59;;;;;;;22.65;13.27;;;;;;;13.96;100.00;101638.16;5241620;28;20079;-73
2022/10/13 08:04:31;;;;;;;22.20;13.73;;;;;;;14.04;100.00;101638.31;5240177;28;20057;-73
2022/10/13 08:07:04;;;;;;;25.52;13.98;;;;;;;14.00;100.00;101634.28;5234708;28;20087;-74
2022/10/13 08:09:36;;;;;;;18.38;12.65;;;;;;;14.11;100.00;101636.81;5238977;28;20025;-73
2022/10/13 08:12:07;;;;;;;24.30;13.98;;;;;;;14.17;100.00;101643.38;5243206;28;20029;-73
2022/10/13 08:14:38;;;;;;;18.65;12.23;;;;;;;14.20;100.00;101643.06;5242338;28;20056;-73
2022/10/13 08:17:10;;;;;;;19.88;12.80;;;;;;;14.19;100.00;101637.94;5239254;28;20036;-73
2022/10/13 08:19:41;;;;;;;20.42;13.18;;;;;;;14.25;100.00;101642.69;5241501;28;20510;-73
2022/10/13 08:22:13;;;;;;;16.80;13.30;;;;;;;14.23;100.00;101632.28;5241598;28;20495;-73
2022/10/13 08:24:45;;;;;;;18.30;12.52;;;;;;;14.32;100.00;101633.28;5236311;28;20418;-73
2022/10/13 08:27:20;;;;;;;22.08;13.25;;;;;;;14.39;100.00;101630.91;5244039;28;20035;-73
2022/10/13 08:29:53;;;;;;;19.92;11.90;;;;;;;14.39;100.00;101629.13;5236517;28;20049;-73
2022/10/13 08:32:24;;;;;;;17.23;12.35;;;;;;;14.45;100.00;101617.22;5240612;28;20631;-73
2022/10/13 08:34:56;;;;;;;20.27;12.43;;;;;;;14.48;100.00;101619.56;5303274;23;20056;-76
2022/10/13 08:37:27;;;;;;;19.27;12.60;;;;;;;14.44;100.00;101608.47;5313654;28;20135;-77
2022/10/13 08:39:58;;;;;;;21.42;12.25;;;;;;;14.48;100.00;101623.03;5315953;28;20460;-77
2022/10/13 08:42:30;;;;;;;15.55;11.98;;;;;;;14.53;100.00;101618.22;5317230;28;20055;-76
2022/10/13 08:45:04;;;;;;;15.88;11.82;;;;;;;14.58;100.00;101625.69;5303802;28;20404;-75
2022/10/13 08:47:47;;;;;;;21.05;12.32;;;;;;;14.68;100.00;101620.47;5305597;28;20107;-76
2022/10/13 08:50:22;;;;;;;22.42;12.30;;;;;;;14.63;100.00;101623.50;5305466;28;20038;-76
2022/10/13 08:52:58;;;;;;;18.02;11.50;;;;;;;14.67;100.00;101632.81;5287262;28;20387;-76
2022/10/13 08:55:44;;;;;;;19.58;11.63;;;;;;;14.75;100.00;101625.03;5303650;28;20089;-76
2022/10/13 08:58:22;;;;;;;17.00;11.80;;;;;;;14.81;100.00;101621.00;5305494;28;20027;-76
2022/10/13 09:01:10;;;;;;;15.70;11.38;;;;;;;14.81;100.00;101618.34;5306084;28;20460;-76
2022/10/13 09:03:53;;;;;;;16.63;10.80;;;;;;;14.83;100.00;101611.16;5288910;28;20040;-77
2022/10/13 09:06:27;;;;;;;15.48;11.02;;;;;;;14.76;100.00;101613.50;5295130;28;20020;-76
2022/10/13 09:09:14;;;;;;;18.70;10.63;;;;;;;14.88;100.00;101602.81;5286240;28;20212;-76
2022/10/13 09:11:48;;;;;;;17.30;10.68;;;;;;;14.74;100.00;101604.91;5306567;28;20028;-76
2022/10/13 09:14:20;;;;;;;14.23;10.75;;;;;;;14.73;100.00;101615.59;5309489;28;20361;-76
2022/10/13 09:16:54;;;;;;;18.55;10.82;;;;;;;14.74;100.00;101614.63;5308435;28;20035;-77
2022/10/13 09:19:39;;;;;;;;;;;;;;;15.33;100.00;101611.78;5301119;28;20429;-78
2022/10/13 09:22:25;;;;;;;20.90;11.23;;;;;;;14.91;100.00;101610.47;5307157;28;20059;-78
2022/10/13 09:25:05;;;;;;;17.38;10.90;;;;;;;14.86;100.00;101608.25;5304788;28;20028;-77
2022/10/13 09:27:44;;;;;;;19.98;12.27;;;;;;;14.84;100.00;101602.25;5294733;28;20365;-78
2022/10/13 09:30:37;;;;;;;20.15;11.63;;;;;;;15.04;100.00;101603.94;5304500;28;20060;-76
2022/10/13 09:33:08;;;;;;;18.80;11.07;;;;;;;14.84;100.00;101600.44;5312629;28;20038;-76
2022/10/13 09:35:46;;;;;;;17.95;11.82;;;;;;;14.89;100.00;101605.34;5307573;28;20024;-77
2022/10/13 09:38:20;;;;;;;25.73;12.18;;;;;;;14.91;100.00;101600.72;5304469;28;20123;-77
2022/10/13 09:40:59;;;;;;;26.13;12.98;;;;;;;15.06;100.00;101598.50;5295563;28;20480;-76
2022/10/13 09:43:47;;;;;;;15.95;12.20;;;;;;;15.08;100.00;101600.03;5311631;28;20028;-78
2022/10/13 09:46:35;;;;;;;15.05;11.40;;;;;;;15.19;100.00;101606.97;5305014;28;20138;-76
2022/10/13 09:49:31;;;;;;;18.35;12.90;;;;;;;15.17;100.00;101597.53;5311690;28;20593;-77
2022/10/13 09:52:20;;;;;;;20.98;12.98;;;;;;;15.17;100.00;101595.72;5307261;28;20024;-77
2022/10/13 09:54:56;;;;;;;17.52;12.70;;;;;;;14.93;100.00;101603.25;5307250;28;20053;-76
2022/10/13 09:57:50;;;;;;;23.48;14.00;;;;;;;14.89;100.00;101601.84;5300219;28;20044;-76
2022/10/13 10:00:24;;;;;;;21.55;13.45;;;;;;;14.77;100.00;101596.72;5301202;28;20027;-76
2022/10/13 10:03:25;;;;;;;18.30;12.95;;;;;;;15.01;100.00;101593.66;5309737;28;20019;-76
2022/10/13 10:06:00;;;;;;;16.85;12.85;;;;;;;14.83;100.00;101590.88;5310043;28;20035;-76
2022/10/13 10:08:46;;;;;;;19.45;13.95;;;;;;;14.90;100.00;101591.16;5306808;28;20077;-77
2022/10/13 10:11:26;;;;;;;18.25;13.00;;;;;;;14.84;100.00;101589.06;5306690;28;20024;-77
2022/10/13 10:13:59;;;;;;;19.83;13.30;;;;;;;14.77;100.00;101591.47;5308796;28;20019;-77
2022/10/13 10:16:42;;;;;;;18.83;13.27;;;;;;;14.90;100.00;101585.88;5306006;28;20369;-76
2022/10/13 10:19:16;;;;;;;;;;;;;;;15.40;100.00;101590.09;5307613;28;20032;-76
2022/10/13 10:22:02;;;;;;;18.20;13.60;;;;;;;14.84;100.00;101570.59;5308859;28;19916;-76
2022/10/13 10:24:50;;;;;;;17.25;12.25;;;;;;;14.83;100.00;101577.69;5302866;28;20039;-75
2022/10/13 10:27:35;;;;;;;18.30;12.30;;;;;;;14.73;100.00;101573.38;5310227;28;20028;-77
2022/10/13 10:30:17;;;;;;;19.17;13.13;;;;;;;14.75;100.00;101577.56;5310396;28;20027;-76
2022/10/13 10:33:11;;;;;;;18.85;12.70;;;;;;;14.92;100.00;101577.81;5310653;28;20076;-77
2022/10/13 10:36:15;;;;;;;16.40;12.60;;;;;;;14.89;100.00;101586.00;5307304;28;20038;-76
2022/10/13 10:38:50;;;;;;;;;;;;;;;15.33;100.00;101588.03;5309615;28;20035;-77
2022/10/13 10:41:43;;;;;;;17.95;11.88;;;;;;;14.99;100.00;101584.19;5308291;28;20292;-76
2022/10/13 10:44:38;;;;;;;16.50;12.17;;;;;;;15.12;100.00;101583.94;5307025;28;20492;-76
2022/10/13 10:47:30;;;;;;;18.27;13.55;;;;;;;15.02;100.00;101566.28;5307999;28;20261;-76
2022/10/13 10:50:05;;;;;;;14.98;12.52;;;;;;;14.91;100.00;101576.16;5302918;28;20057;-76
2022/10/13 10:53:05;;;;;;;15.98;12.43;;;;;;;15.13;100.00;101585.59;5287554;28;20023;-76
2022/10/13 10:55:55;;;;;;;19.85;12.90;;;;;;;15.24;100.00;101580.16;5309426;28;20030;-76
2022/10/13 10:58:53;;;;;;;19.13;12.48;;;;;;;15.18;100.00;101576.25;5308243;28;20024;-76
2022/10/13 11:01:45;;;;;;;17.33;12.82;;;;;;;15.33;100.00;101574.81;5306791;28;20016;-76
2022/10/13 11:04:39;;;;;;;17.02;11.77;;;;;;;15.32;100.00;101559.97;5301024;28;20028;-76
2022/10/13 11:07:30;;;;;;;15.98;11.85;;;;;;;15.40;100.00;101550.50;5310868;28;20106;-77
2022/10/13 11:10:15;;;;;;;20.25;12.13;;;;;;;15.37;100.00;101569.25;5307049;28;20065;-77
2022/10/13 11:12:52;;;;;;;17.45;12.85;;;;;;;15.28;100.00;101565.69;5308530;28;20031;-76
2022/10/13 11:15:26;;;;;;;18.67;11.60;;;;;;;15.16;100.00;101557.09;5303710;28;20028;-76
2022/10/13 11:17:57;;;;;;;16.55;11.15;;;;;;;15.20;100.00;101563.75;5281690;28;20020;-76
2022/10/13 11:20:35;;;;;;;14.80;11.38;;;;;;;15.30;100.00;101564.56;5295782;28;20361;-77
2022/10/13 11:23:29;;;;;;;17.15;11.40;;;;;;;15.43;100.00;101558.13;5287986;28;20612;-76
2022/10/13 11:26:42;;;;;;;15.75;11.10;;;;;;;15.50;100.00;101557.41;5306782;28;20027;-77
2022/10/13 11:29:37;;;;;;;16.88;11.32;;;;;;;15.28;100.00;101552.47;5247355;28;20047;-77
2022/10/13 11:32:26;;;;;;;18.77;11.15;;;;;;;15.40;100.00;101539.94;5305041;28;20051;-77
2022/10/13 11:35:16;;;;;;;15.70;11.25;;;;;;;15.25;100.00;101540.38;5304691;28;20543;-76
2022/10/13 11:38:01;;;;;;;16.67;10.68;;;;;;;15.37;100.00;101534.94;5305553;28;20039;-77
2022/10/13 11:40:34;;;;;;;14.35;10.85;;;;;;;15.16;100.00;101537.78;5308562;28;20598;-77
2022/10/13 11:43:14;;;;;;;16.65;10.90;;;;;;;15.35;100.00;101535.09;5300314;28;20110;-77
2022/10/13 11:46:00;;;;;;;13.05;10.00;;;;;;;15.21;100.00;101533.72;5284861;28;20075;-77